createdAt,value
2023-05-27T00:00:16.743Z,75.03
2023-05-27T00:02:43.979Z,72.21
2023-05-27T00:05:11.763Z,83.00
2023-05-27T00:07:39.336Z,70.95
2023-05-27T00:10:07.226Z,56.20
2023-05-27T00:12:34.576Z,68.87
2023-05-27T00:15:01.770Z,53.85
2023-05-27T00:17:29.622Z,59.99
2023-05-27T00:19:56.850Z,71.83
2023-05-27T00:22:24.581Z,78.03
2023-05-27T00:24:51.963Z,80.83
2023-05-27T00:27:19.682Z,73.79
2023-05-27T00:29:46.923Z,71.91
2023-05-27T00:32:14.324Z,67.83
2023-05-27T00:34:41.603Z,74.46
2023-05-27T00:37:09.490Z,65.62
2023-05-27T00:39:37.108Z,68.53
2023-05-27T00:42:05.430Z,79.21
2023-05-27T00:44:32.633Z,81.60
2023-05-27T00:47:01.117Z,63.74
2023-05-27T00:49:28.634Z,55.32
2023-05-27T00:51:56.485Z,56.64
2023-05-27T00:54:24.440Z,68.58
2023-05-27T00:56:52.984Z,77.08
2023-05-27T00:59:20.643Z,83.35
2023-05-27T01:01:59.720Z,62.00
2023-05-27T01:04:27.455Z,69.17
2023-05-27T01:07:09.840Z,55.30
2023-05-27T01:10:10.502Z,73.95
2023-05-27T01:13:02.330Z,60.19
2023-05-27T01:15:33.767Z,60.43
2023-05-27T01:18:04.425Z,59.18
2023-05-27T01:20:34.010Z,65.30
2023-05-27T01:23:02.939Z,59.82
2023-05-27T01:25:30.585Z,61.51
2023-05-27T01:27:58.028Z,58.02
2023-05-27T01:30:26.032Z,62.58
2023-05-27T01:33:10.138Z,75.25
2023-05-27T01:35:47.780Z,71.85
2023-05-27T01:38:21.544Z,54.70
2023-05-27T01:40:51.812Z,68.70
2023-05-27T01:43:20.708Z,50.25
2023-05-27T01:45:48.486Z,60.55
2023-05-27T01:48:15.980Z,57.00
2023-05-27T01:50:43.177Z,63.33
2023-05-27T01:53:10.397Z,70.71
2023-05-27T01:55:37.723Z,81.49
2023-05-27T01:58:05.080Z,66.80
2023-05-27T02:00:34.831Z,77.13
2023-05-27T02:03:02.222Z,68.18
2023-05-27T02:05:29.605Z,58.29
2023-05-27T02:07:57.457Z,54.74
2023-05-27T02:10:26.596Z,83.36
2023-05-27T02:12:53.891Z,56.59
2023-05-27T02:15:24.502Z,66.24
2023-05-27T02:17:56.255Z,69.26
2023-05-27T02:20:24.462Z,87.44
2023-05-27T02:22:53.344Z,91.83
2023-05-27T02:25:20.822Z,83.88
2023-05-27T02:27:49.534Z,68.60
2023-05-27T02:30:17.340Z,74.99
2023-05-27T02:32:45.374Z,58.66
2023-05-27T02:35:16.197Z,67.15
2023-05-27T02:37:45.839Z,75.80
2023-05-27T02:40:13.369Z,86.94
2023-05-27T02:42:40.571Z,76.23
2023-05-27T02:45:09.550Z,67.10
2023-05-27T02:47:36.819Z,63.83
2023-05-27T02:50:04.671Z,99.23
2023-05-27T02:52:31.872Z,64.25
2023-05-27T02:54:59.047Z,59.64
2023-05-27T02:57:26.745Z,73.67
2023-05-27T02:59:53.965Z,97.00
2023-05-27T03:02:21.230Z,64.53
2023-05-27T03:04:50.296Z,93.68
2023-05-27T03:07:17.626Z,90.56
2023-05-27T03:09:44.807Z,100.00
2023-05-27T03:12:11.979Z,94.51
2023-05-27T03:14:41.542Z,61.44
2023-05-27T03:17:09.497Z,56.17
2023-05-27T03:19:36.649Z,60.27
2023-05-27T03:22:05.881Z,73.08
2023-05-27T03:24:33.305Z,95.95
2023-05-27T03:27:02.248Z,77.72
2023-05-27T03:29:31.820Z,59.90
2023-05-27T03:31:59.656Z,82.57
2023-05-27T03:34:27.568Z,88.58
2023-05-27T03:36:54.845Z,60.28
2023-05-27T03:39:28.558Z,87.00
2023-05-27T03:41:58.981Z,95.07
2023-05-27T03:44:26.230Z,70.34
2023-05-27T03:46:53.641Z,86.83
2023-05-27T03:49:20.815Z,68.17
2023-05-27T03:51:48.518Z,73.78
2023-05-27T03:54:16.264Z,71.36
2023-05-27T03:56:44.177Z,100.00
2023-05-27T03:59:14.296Z,94.54
2023-05-27T04:01:42.186Z,98.65
2023-05-27T04:04:09.956Z,66.13
2023-05-27T04:06:38.236Z,86.11
2023-05-27T04:09:05.812Z,100.00
2023-05-27T04:11:32.959Z,100.00
2023-05-27T04:14:00.171Z,94.16
2023-05-27T04:16:27.437Z,79.87
2023-05-27T04:18:56.099Z,97.97
2023-05-27T04:21:23.698Z,68.14
2023-05-27T04:23:51.170Z,100.00
2023-05-27T04:26:19.439Z,100.00
2023-05-27T04:28:51.284Z,100.00
2023-05-27T04:31:19.312Z,81.93
2023-05-27T04:33:54.373Z,100.00
2023-05-27T04:36:26.382Z,100.00
2023-05-27T04:39:05.187Z,100.00
2023-05-27T04:41:35.205Z,100.00
2023-05-27T04:44:27.877Z,100.00
2023-05-27T04:46:57.447Z,100.00
2023-05-27T04:49:25.832Z,100.00
2023-05-27T04:51:55.646Z,100.00
2023-05-27T04:54:24.418Z,100.00
2023-05-27T04:56:53.128Z,100.00
2023-05-27T04:59:30.681Z,100.00
2023-05-27T05:02:11.962Z,100.00
2023-05-27T05:04:56.462Z,100.00
2023-05-27T05:07:24.380Z,100.00
2023-05-27T05:09:52.982Z,100.00
2023-05-27T05:12:27.948Z,100.00
2023-05-27T05:14:56.457Z,100.00
2023-05-27T05:17:25.566Z,100.00
2023-05-27T05:19:54.316Z,97.44
2023-05-27T05:22:24.014Z,80.90
2023-05-27T05:24:52.153Z,93.47
2023-05-27T05:27:28.708Z,99.72
2023-05-27T05:29:55.981Z,100.00
2023-05-27T05:32:23.189Z,100.00
2023-05-27T05:34:51.178Z,100.00
2023-05-27T05:37:19.720Z,100.00
2023-05-27T05:39:48.832Z,100.00
2023-05-27T05:42:16.321Z,97.48
2023-05-27T05:44:43.506Z,100.00
2023-05-27T05:47:11.069Z,91.90
2023-05-27T05:49:38.388Z,94.80
2023-05-27T05:52:07.939Z,85.61
2023-05-27T05:54:36.187Z,70.68
2023-05-27T05:57:04.308Z,92.39
2023-05-27T05:59:31.528Z,96.81
2023-05-27T06:01:58.965Z,98.14
2023-05-27T06:04:29.398Z,99.21
2023-05-27T06:06:58.786Z,95.25
2023-05-27T06:09:35.495Z,94.67
2023-05-27T06:12:08.435Z,93.19
2023-05-27T06:14:42.052Z,86.30
2023-05-27T06:17:10.900Z,89.40
2023-05-27T06:19:38.145Z,89.39
2023-05-27T06:22:06.764Z,88.49
2023-05-27T06:24:52.570Z,79.53
2023-05-27T06:27:32.117Z,81.57
2023-05-27T06:29:59.359Z,83.86
2023-05-27T06:32:35.366Z,80.97
2023-05-27T06:35:02.741Z,64.00
2023-05-27T06:37:30.079Z,80.01
2023-05-27T06:39:57.622Z,74.86
2023-05-27T06:42:25.564Z,76.04
2023-05-27T06:45:24.931Z,74.78
2023-05-27T06:48:01.726Z,73.24
2023-05-27T06:50:28.963Z,72.42
2023-05-27T06:52:56.124Z,73.54
2023-05-27T06:55:45.113Z,77.28
2023-05-27T06:58:35.875Z,74.65
2023-05-27T07:01:09.528Z,69.29
2023-05-27T07:03:42.143Z,69.47
2023-05-27T07:06:17.547Z,68.72
2023-05-27T07:08:49.409Z,70.27
2023-05-27T07:11:27.612Z,69.36
2023-05-27T07:14:00.157Z,68.16
2023-05-27T07:16:31.198Z,67.04
2023-05-27T07:18:58.463Z,64.18
2023-05-27T07:21:27.422Z,64.02
2023-05-27T07:23:54.987Z,64.32
2023-05-27T07:26:41.156Z,62.67
2023-05-27T07:29:08.462Z,60.79
2023-05-27T07:31:56.148Z,58.83
2023-05-27T07:34:29.235Z,59.11
2023-05-27T07:36:57.367Z,56.74
2023-05-27T07:39:24.778Z,57.05
2023-05-27T07:41:52.337Z,57.93
2023-05-27T07:44:20.366Z,55.71
2023-05-27T07:46:47.770Z,55.51
2023-05-27T07:49:15.815Z,55.81
2023-05-27T07:51:55.985Z,54.60
2023-05-27T07:54:23.848Z,53.81
2023-05-27T07:56:52.025Z,52.35
2023-05-27T07:59:19.507Z,53.55
2023-05-27T08:01:46.960Z,52.64
2023-05-27T08:04:24.289Z,52.47
2023-05-27T08:07:04.106Z,52.22
2023-05-27T08:09:51.286Z,51.21
2023-05-27T08:12:34.177Z,50.31
2023-05-27T08:15:31.601Z,50.51
2023-05-27T08:18:25.499Z,51.00
2023-05-27T08:21:06.382Z,49.56
2023-05-27T08:23:53.481Z,49.22
2023-05-27T08:26:49.356Z,48.73
2023-05-27T08:29:21.582Z,47.14
2023-05-27T08:32:00.354Z,46.65
2023-05-27T08:34:28.446Z,46.22
2023-05-27T08:36:56.315Z,44.86
2023-05-27T08:39:25.405Z,45.09
2023-05-27T08:42:06.390Z,46.31
2023-05-27T08:44:33.749Z,45.94
2023-05-27T08:47:06.096Z,45.38
2023-05-27T08:49:34.409Z,43.53
2023-05-27T08:52:03.428Z,44.61
2023-05-27T08:54:32.084Z,43.12
2023-05-27T08:57:08.702Z,45.29
2023-05-27T08:59:36.838Z,44.14
2023-05-27T09:02:13.285Z,45.13
2023-05-27T09:04:42.084Z,44.74
2023-05-27T09:07:09.974Z,44.30
2023-05-27T09:09:37.505Z,43.64
2023-05-27T09:12:06.742Z,42.65
2023-05-27T09:14:35.061Z,42.74
2023-05-27T09:17:10.140Z,45.12
2023-05-27T09:19:37.424Z,45.07
2023-05-27T09:22:05.861Z,44.77
2023-05-27T09:24:33.291Z,44.77
2023-05-27T09:27:03.538Z,45.03
2023-05-27T09:29:31.508Z,43.75
2023-05-27T09:31:58.716Z,42.79
2023-05-27T09:34:25.953Z,41.89
2023-05-27T09:36:54.074Z,42.13
2023-05-27T09:39:23.781Z,41.74
2023-05-27T09:41:56.537Z,41.68
2023-05-27T09:44:33.640Z,41.04
2023-05-27T09:47:03.281Z,41.62
2023-05-27T09:49:34.014Z,41.33
2023-05-27T09:52:02.136Z,41.30
2023-05-27T09:54:31.367Z,40.95
2023-05-27T09:57:00.546Z,40.69
2023-05-27T09:59:28.157Z,39.18
2023-05-27T10:01:57.289Z,41.05
2023-05-27T10:04:31.435Z,39.28
2023-05-27T10:07:00.735Z,39.88
2023-05-27T10:09:28.004Z,39.58
2023-05-27T10:11:56.041Z,38.69
2023-05-27T10:14:23.716Z,38.51
2023-05-27T10:16:57.295Z,38.57
2023-05-27T10:19:25.091Z,37.94
2023-05-27T10:21:54.254Z,37.94
2023-05-27T10:24:33.673Z,37.86
2023-05-27T10:27:07.006Z,37.93
2023-05-27T10:29:39.766Z,37.24
2023-05-27T10:32:07.591Z,36.62
2023-05-27T10:34:37.416Z,37.03
2023-05-27T10:37:05.317Z,36.27
2023-05-27T10:39:32.536Z,36.20
2023-05-27T10:41:59.834Z,36.09
2023-05-27T10:44:29.813Z,35.07
2023-05-27T10:47:11.469Z,36.39
2023-05-27T10:49:41.643Z,35.60
2023-05-27T10:52:18.379Z,36.19
2023-05-27T10:54:48.929Z,36.87
2023-05-27T10:57:18.478Z,36.44
2023-05-27T10:59:51.511Z,35.83
2023-05-27T11:02:20.161Z,35.31
2023-05-27T11:04:50.115Z,33.98
2023-05-27T11:07:22.335Z,34.59
2023-05-27T11:09:53.036Z,34.93
2023-05-27T11:12:28.310Z,34.27
2023-05-27T11:14:57.311Z,35.01
2023-05-27T11:17:29.592Z,33.84
2023-05-27T11:19:57.488Z,34.17
2023-05-27T11:22:24.921Z,32.63
2023-05-27T11:25:04.008Z,31.45
2023-05-27T11:27:40.284Z,31.92
2023-05-27T11:30:15.313Z,31.58
2023-05-27T11:32:48.188Z,31.50
2023-05-27T11:35:20.107Z,31.20
2023-05-27T11:37:52.327Z,30.18
2023-05-27T11:40:20.465Z,30.21
2023-05-27T11:42:48.416Z,29.67
2023-05-27T11:45:20.740Z,28.83
2023-05-27T11:47:52.423Z,28.70
2023-05-27T11:50:22.798Z,28.00
2023-05-27T11:52:59.650Z,26.81
2023-05-27T11:55:27.649Z,26.04
2023-05-27T11:57:55.472Z,25.59
2023-05-27T12:00:22.874Z,25.28
2023-05-27T12:02:50.498Z,24.64
2023-05-27T12:05:33.074Z,26.11
2023-05-27T12:08:04.442Z,24.10
2023-05-27T12:10:32.199Z,25.76
2023-05-27T12:13:07.638Z,25.19
2023-05-27T12:15:35.674Z,23.48
2023-05-27T12:18:03.516Z,22.29
2023-05-27T12:20:31.500Z,21.86
2023-05-27T12:22:59.971Z,21.11
2023-05-27T12:25:27.702Z,21.68
2023-05-27T12:27:55.540Z,23.63
2023-05-27T12:30:23.153Z,21.86
2023-05-27T12:32:51.050Z,21.49
2023-05-27T12:35:18.754Z,19.40
2023-05-27T12:37:48.939Z,19.31
2023-05-27T12:40:17.264Z,18.32
2023-05-27T12:42:47.217Z,17.96
2023-05-27T12:45:18.699Z,16.93
2023-05-27T12:47:50.476Z,17.31
2023-05-27T12:50:22.759Z,16.50
2023-05-27T12:52:52.352Z,16.60
2023-05-27T12:55:22.760Z,19.21
2023-05-27T12:57:52.592Z,19.90
2023-05-27T13:00:21.792Z,18.78
2023-05-27T13:02:50.198Z,17.99
2023-05-27T13:05:20.043Z,17.70
2023-05-27T13:08:03.487Z,17.98
2023-05-27T13:10:31.630Z,18.44
2023-05-27T13:13:00.666Z,18.19
2023-05-27T13:15:29.839Z,18.81
2023-05-27T13:17:59.938Z,18.04
2023-05-27T13:20:30.804Z,17.18
2023-05-27T13:23:02.298Z,16.16
2023-05-27T13:25:31.426Z,17.60
2023-05-27T13:27:59.643Z,17.15
2023-05-27T13:30:27.833Z,17.28
2023-05-27T13:32:57.049Z,16.23
2023-05-27T13:35:24.841Z,15.26
2023-05-27T13:37:52.619Z,14.81
2023-05-27T13:40:20.302Z,14.28
2023-05-27T13:42:48.488Z,15.51
2023-05-27T13:45:16.365Z,15.26
2023-05-27T13:47:45.674Z,15.11
2023-05-27T13:50:13.572Z,15.56
2023-05-27T13:52:42.503Z,14.98
2023-05-27T13:55:10.492Z,14.32
2023-05-27T13:57:38.573Z,13.80
2023-05-27T14:00:07.439Z,13.54
2023-05-27T14:02:35.135Z,13.64
2023-05-27T14:05:04.551Z,13.93
2023-05-27T14:07:32.362Z,13.85
2023-05-27T14:09:59.979Z,13.32
2023-05-27T14:12:31.185Z,13.40
2023-05-27T14:14:58.922Z,15.79
2023-05-27T14:17:26.714Z,15.03
2023-05-27T14:19:54.444Z,15.14
2023-05-27T14:22:23.279Z,15.11
2023-05-27T14:24:51.008Z,14.53
2023-05-27T14:27:18.714Z,14.10
2023-05-27T14:29:46.461Z,14.03
2023-05-27T14:32:14.041Z,14.46
2023-05-27T14:34:41.688Z,15.63
2023-05-27T14:37:09.699Z,15.04
2023-05-27T14:39:37.503Z,13.75
2023-05-27T14:42:05.664Z,13.31
2023-05-27T14:44:36.554Z,13.37
2023-05-27T14:47:05.427Z,15.43
2023-05-27T14:49:33.237Z,16.36
2023-05-27T14:52:01.209Z,15.05
2023-05-27T14:54:29.490Z,14.80
2023-05-27T14:56:57.783Z,14.36
2023-05-27T14:59:25.512Z,13.11
2023-05-27T15:01:53.134Z,14.23
2023-05-27T15:04:20.989Z,14.21
2023-05-27T15:06:49.380Z,14.28
2023-05-27T15:09:18.191Z,13.42
2023-05-27T15:11:45.798Z,12.98
2023-05-27T15:14:13.439Z,12.75
2023-05-27T15:16:41.055Z,13.98
2023-05-27T15:19:08.737Z,15.41
2023-05-27T15:21:36.773Z,15.16
2023-05-27T15:24:04.630Z,15.38
2023-05-27T15:26:32.214Z,16.15
2023-05-27T15:28:59.843Z,16.07
2023-05-27T15:31:27.572Z,15.54
2023-05-27T15:33:56.402Z,14.90
2023-05-27T15:36:24.070Z,17.37
2023-05-27T15:38:52.124Z,18.31
2023-05-27T15:41:19.771Z,17.35
2023-05-27T15:43:47.392Z,17.94
2023-05-27T15:46:18.339Z,16.67
2023-05-27T15:48:46.329Z,15.69
2023-05-27T15:51:14.142Z,15.83
2023-05-27T15:53:41.709Z,17.26
2023-05-27T15:56:09.387Z,17.45
2023-05-27T15:58:37.218Z,16.31
2023-05-27T16:01:07.927Z,15.71
2023-05-27T16:03:35.588Z,16.34
2023-05-27T16:06:06.911Z,15.93
2023-05-27T16:08:34.775Z,17.00
2023-05-27T16:11:02.431Z,18.37
2023-05-27T16:13:30.117Z,18.03
2023-05-27T16:15:57.819Z,20.08
2023-05-27T16:18:25.743Z,20.87
2023-05-27T16:20:53.774Z,21.59
2023-05-27T16:23:22.087Z,22.59
2023-05-27T16:25:53.823Z,22.86
2023-05-27T16:28:24.522Z,23.68
2023-05-27T16:30:52.525Z,24.06
2023-05-27T16:33:20.601Z,23.18
2023-05-27T16:35:48.312Z,24.50
2023-05-27T16:38:16.300Z,24.16
2023-05-27T16:40:43.933Z,25.11
2023-05-27T16:43:11.526Z,26.29
2023-05-27T16:45:40.110Z,26.83
2023-05-27T16:48:08.417Z,26.54
2023-05-27T16:50:36.799Z,26.63
2023-05-27T16:53:05.459Z,26.38
2023-05-27T16:55:33.154Z,25.35
2023-05-27T16:58:00.960Z,25.63
2023-05-27T17:00:30.094Z,27.49
2023-05-27T17:02:57.812Z,26.83
2023-05-27T17:05:26.281Z,27.69
2023-05-27T17:07:54.034Z,27.56
2023-05-27T17:10:21.793Z,25.85
2023-05-27T17:12:49.424Z,26.59
2023-05-27T17:15:17.583Z,26.71
2023-05-27T17:17:45.387Z,29.79
2023-05-27T17:20:19.643Z,27.48
2023-05-27T17:22:47.941Z,28.47
2023-05-27T17:25:18.976Z,28.91
2023-05-27T17:27:48.706Z,27.32
2023-05-27T17:30:16.958Z,27.76
2023-05-27T17:32:44.732Z,27.17
2023-05-27T17:35:12.427Z,27.87
2023-05-27T17:37:41.750Z,29.79
2023-05-27T17:40:12.677Z,27.86
2023-05-27T17:42:40.764Z,30.26
2023-05-27T17:45:08.967Z,29.48
2023-05-27T17:47:36.913Z,28.86
2023-05-27T17:50:04.992Z,28.08
2023-05-27T17:52:32.842Z,29.26
2023-05-27T17:55:00.863Z,30.33
2023-05-27T17:57:32.081Z,28.88
2023-05-27T17:59:59.674Z,29.54
2023-05-27T18:02:27.485Z,29.99
2023-05-27T18:04:55.321Z,31.09
2023-05-27T18:07:23.086Z,29.80
2023-05-27T18:09:50.775Z,29.95
2023-05-27T18:12:18.430Z,30.40
2023-05-27T18:14:46.221Z,31.48
2023-05-27T18:17:16.703Z,31.50
2023-05-27T18:19:44.465Z,30.52
2023-05-27T18:22:11.720Z,31.59
2023-05-27T18:24:38.927Z,31.77
2023-05-27T18:27:06.307Z,30.92
2023-05-27T18:29:33.607Z,31.19
2023-05-27T18:32:00.913Z,31.72
2023-05-27T18:34:28.302Z,31.87
2023-05-27T18:36:56.151Z,31.56
2023-05-27T18:39:23.654Z,33.51
2023-05-27T18:41:50.888Z,32.28
2023-05-27T18:44:18.749Z,32.06
2023-05-27T18:46:46.271Z,32.81
2023-05-27T18:49:13.501Z,32.89
2023-05-27T18:51:41.390Z,32.63
2023-05-27T18:54:10.573Z,33.11
2023-05-27T18:56:38.199Z,32.92
2023-05-27T18:59:06.205Z,34.12
2023-05-27T19:01:33.637Z,34.62
2023-05-27T19:04:02.269Z,34.20
2023-05-27T19:06:31.324Z,34.90
2023-05-27T19:09:00.286Z,34.64
2023-05-27T19:11:28.835Z,34.90
2023-05-27T19:13:55.997Z,34.54
2023-05-27T19:16:23.274Z,35.18
2023-05-27T19:18:50.591Z,35.26
2023-05-27T19:21:17.790Z,35.52
2023-05-27T19:23:46.347Z,36.42
2023-05-27T19:26:14.194Z,36.79
2023-05-27T19:28:42.090Z,36.05
2023-05-27T19:31:10.034Z,36.43
2023-05-27T19:33:37.246Z,36.70
2023-05-27T19:36:05.153Z,37.10
2023-05-27T19:38:32.520Z,37.65
2023-05-27T19:41:00.668Z,37.47
2023-05-27T19:43:28.602Z,38.00
2023-05-27T19:45:56.229Z,38.29
2023-05-27T19:48:24.466Z,38.29
2023-05-27T19:50:51.961Z,39.15
2023-05-27T19:53:19.989Z,38.81
2023-05-27T19:55:47.867Z,40.03
2023-05-27T19:58:16.323Z,40.59
2023-05-27T20:00:43.992Z,41.27
2023-05-27T20:03:11.604Z,42.95
2023-05-27T20:05:39.444Z,43.82
2023-05-27T20:08:06.788Z,43.78
2023-05-27T20:10:34.199Z,44.00
2023-05-27T20:13:01.396Z,44.88
2023-05-27T20:15:28.613Z,45.34
2023-05-27T20:17:55.976Z,45.11
2023-05-27T20:20:28.029Z,46.76
2023-05-27T20:22:55.731Z,46.36
2023-05-27T20:25:24.244Z,46.85
2023-05-27T20:27:53.108Z,46.11
2023-05-27T20:30:20.961Z,46.19
2023-05-27T20:32:48.798Z,46.54
2023-05-27T20:35:16.565Z,48.97
2023-05-27T20:37:44.231Z,49.58
2023-05-27T20:40:12.322Z,48.01
2023-05-27T20:42:40.373Z,44.25
2023-05-27T20:45:08.296Z,51.21
2023-05-27T20:47:36.978Z,53.03
2023-05-27T20:50:06.533Z,53.88
2023-05-27T20:52:34.277Z,55.89
2023-05-27T20:55:02.324Z,56.18
2023-05-27T20:57:30.789Z,59.96
2023-05-27T20:59:58.443Z,58.87
2023-05-27T21:02:26.448Z,62.74
2023-05-27T21:04:54.308Z,67.66
2023-05-27T21:07:22.636Z,64.92
2023-05-27T21:09:50.357Z,69.38
2023-05-27T21:12:18.046Z,71.86
2023-05-27T21:14:45.784Z,75.35
2023-05-27T21:17:13.694Z,71.84
2023-05-27T21:19:42.704Z,72.75
2023-05-27T21:22:10.918Z,71.13
2023-05-27T21:24:38.892Z,75.51
2023-05-27T21:27:06.942Z,78.37
2023-05-27T21:29:34.240Z,80.18
2023-05-27T21:32:01.839Z,82.13
2023-05-27T21:34:29.782Z,84.04
2023-05-27T21:37:01.374Z,85.64
2023-05-27T21:39:31.436Z,83.21
2023-05-27T21:41:58.717Z,85.65
2023-05-27T21:44:27.068Z,76.69
2023-05-27T21:46:54.294Z,86.62
2023-05-27T21:49:22.282Z,83.41
2023-05-27T21:51:50.335Z,83.94
2023-05-27T21:54:18.122Z,84.83
2023-05-27T21:56:45.998Z,84.97
2023-05-27T21:59:13.290Z,85.48
2023-05-27T22:01:40.704Z,87.29
2023-05-27T22:04:08.811Z,87.87
2023-05-27T22:06:44.645Z,90.78
2023-05-27T22:09:14.989Z,89.73
2023-05-27T22:11:42.236Z,90.58
2023-05-27T22:14:09.636Z,91.86
2023-05-27T22:16:37.082Z,99.44
2023-05-27T22:19:04.558Z,91.40
2023-05-27T22:21:32.275Z,93.06
2023-05-27T22:24:02.824Z,95.07
2023-05-27T22:26:30.057Z,97.87
2023-05-27T22:28:57.284Z,97.58
2023-05-27T22:31:28.016Z,98.83
2023-05-27T22:33:55.598Z,99.61
2023-05-27T22:36:22.739Z,100.00
2023-05-27T22:38:49.945Z,100.00
2023-05-27T22:41:17.132Z,99.71
2023-05-27T22:43:44.304Z,96.15
2023-05-27T22:46:14.772Z,88.73
2023-05-27T22:48:46.609Z,100.00
2023-05-27T22:51:20.648Z,100.00
2023-05-27T22:53:47.896Z,100.00
2023-05-27T22:56:20.997Z,100.00
2023-05-27T22:58:48.213Z,100.00
2023-05-27T23:01:15.561Z,100.00
2023-05-27T23:03:42.888Z,100.00
2023-05-27T23:06:10.342Z,100.00
2023-05-27T23:08:37.967Z,100.00
2023-05-27T23:13:58.111Z,100.00
2023-05-27T23:16:31.546Z,100.00
2023-05-27T23:18:59.087Z,100.00
2023-05-27T23:21:26.772Z,100.00
2023-05-27T23:23:54.178Z,100.00
2023-05-27T23:26:23.193Z,100.00
2023-05-27T23:28:50.630Z,100.00
2023-05-27T23:31:21.033Z,100.00
2023-05-27T23:33:48.654Z,100.00
2023-05-27T23:36:16.011Z,100.00
2023-05-27T23:38:43.328Z,100.00
2023-05-27T23:41:10.699Z,100.00
2023-05-27T23:43:37.948Z,100.00
2023-05-27T23:46:05.285Z,100.00
2023-05-27T23:48:34.478Z,100.00
2023-05-27T23:51:08.050Z,100.00
2023-05-27T23:53:35.538Z,100.00
2023-05-27T23:56:03.048Z,100.00
2023-05-27T23:58:30.560Z,100.00
